createdAt,value
2017-09-04T00:00:29.914Z,1015.9
2017-09-04T00:01:29.361Z,1015.9
2017-09-04T00:02:28.427Z,1015.8
2017-09-04T00:03:27.741Z,1015.9
2017-09-04T00:05:25.944Z,1015.9
2017-09-04T00:06:25.256Z,1015.9
2017-09-04T00:07:24.562Z,1015.9
2017-09-04T00:08:23.496Z,1015.9
2017-09-04T00:10:21.957Z,1015.9
2017-09-04T00:11:21.134Z,1015.9
2017-09-04T00:12:20.192Z,1015.9
2017-09-04T00:14:18.902Z,1015.9
2017-09-04T00:16:17.114Z,1015.9
2017-09-04T00:17:16.054Z,1015.9
2017-09-04T00:18:15.362Z,1015.8
2017-09-04T00:19:14.678Z,1015.8
2017-09-04T00:20:13.983Z,1015.8
2017-09-04T00:20:44.231Z,1015.8
2017-09-04T00:21:14.739Z,1015.8
2017-09-04T00:21:45.122Z,1015.8
2017-09-04T00:22:15.375Z,1015.8
2017-09-04T00:22:45.999Z,1015.8
2017-09-04T00:24:10.465Z,1015.8
2017-09-04T00:25:09.651Z,1015.7
2017-09-04T00:26:08.839Z,1015.7
2017-09-04T00:27:07.903Z,1015.8
2017-09-04T00:28:07.213Z,1015.8
2017-09-04T00:29:06.271Z,1015.8
2017-09-04T00:30:05.471Z,1015.7
2017-09-04T00:31:04.915Z,1015.8
2017-09-04T00:32:03.973Z,1015.8
2017-09-04T00:33:03.165Z,1015.7
2017-09-04T00:34:02.603Z,1015.8
2017-09-04T00:35:01.541Z,1015.8
2017-09-04T00:36:00.860Z,1015.8
2017-09-04T00:36:59.815Z,1015.8
2017-09-04T00:37:59.254Z,1015.7
2017-09-04T00:39:57.458Z,1015.8
2017-09-04T00:40:56.527Z,1015.8
2017-09-04T00:41:56.083Z,1015.7
2017-09-04T00:42:54.892Z,1015.7
2017-09-04T00:43:54.329Z,1015.7
2017-09-04T00:44:53.260Z,1015.7
2017-09-04T00:45:52.748Z,1015.8
2017-09-04T00:46:51.702Z,1015.7
2017-09-04T00:47:51.017Z,1015.8
2017-09-04T00:48:50.196Z,1015.7
2017-09-04T00:49:49.257Z,1015.7
2017-09-04T00:50:48.692Z,1015.7
2017-09-04T00:51:47.618Z,1015.7
2017-09-04T00:52:18.104Z,1015.7
2017-09-04T00:52:48.611Z,1015.7
2017-09-04T00:53:46.164Z,1015.7
2017-09-04T00:54:45.262Z,1015.7
2017-09-04T00:56:43.838Z,1015.7
2017-09-04T00:57:43.028Z,1015.8
2017-09-04T00:58:42.080Z,1015.8
2017-09-04T00:59:41.276Z,1015.7
2017-09-04T01:00:40.462Z,1015.7
2017-09-04T01:01:39.645Z,1015.7
2017-09-04T01:02:38.588Z,1015.6
2017-09-04T01:03:38.033Z,1015.7
2017-09-04T01:05:36.251Z,1015.6
2017-09-04T01:06:35.581Z,1015.6
2017-09-04T01:07:34.398Z,1015.6
2017-09-04T01:09:33.222Z,1015.6
2017-09-04T01:10:32.414Z,1015.6
2017-09-04T01:11:31.343Z,1015.6
2017-09-04T01:12:30.772Z,1015.6
2017-09-04T01:13:29.962Z,1015.7
2017-09-04T01:14:28.916Z,1015.6
2017-09-04T01:15:27.995Z,1015.6
2017-09-04T01:16:27.183Z,1015.6
2017-09-04T01:18:25.882Z,1015.6
2017-09-04T01:19:24.693Z,1015.7
2017-09-04T01:20:23.891Z,1015.7
2017-09-04T01:21:23.203Z,1015.7
2017-09-04T01:22:22.398Z,1015.7
2017-09-04T01:23:21.341Z,1015.7
2017-09-04T01:24:20.896Z,1015.6
2017-09-04T01:26:19.227Z,1015.7
2017-09-04T01:27:18.417Z,1015.7
2017-09-04T01:28:17.234Z,1015.6
2017-09-04T01:29:16.801Z,1015.6
2017-09-04T01:30:15.604Z,1015.6
2017-09-04T01:31:15.038Z,1015.7
2017-09-04T01:32:14.220Z,1015.6
2017-09-04T01:33:13.155Z,1015.6
2017-09-04T01:34:12.588Z,1015.6
2017-09-04T01:35:11.524Z,1015.6
2017-09-04T01:36:10.960Z,1015.7
2017-09-04T01:37:10.273Z,1015.6
2017-09-04T01:38:09.221Z,1015.6
2017-09-04T01:39:08.536Z,1015.6
2017-09-04T01:41:06.739Z,1015.7
2017-09-04T01:43:04.933Z,1015.7
2017-09-04T01:44:04.251Z,1015.7
2017-09-04T01:45:03.448Z,1015.7
2017-09-04T01:46:02.883Z,1015.7
2017-09-04T01:46:33.386Z,1015.7
2017-09-04T01:47:03.896Z,1015.7
2017-09-04T01:47:34.134Z,1015.7
2017-09-04T01:48:04.383Z,1015.7
2017-09-04T01:49:00.294Z,1015.7
2017-09-04T01:49:59.618Z,1015.6
2017-09-04T01:50:58.695Z,1015.7
2017-09-04T01:51:57.662Z,1015.7
2017-09-04T01:52:56.715Z,1015.7
2017-09-04T01:53:55.913Z,1015.7
2017-09-04T01:54:55.139Z,1015.7
2017-09-04T01:56:53.595Z,1015.6
2017-09-04T01:57:52.912Z,1015.6
2017-09-04T01:58:51.979Z,1015.7
2017-09-04T01:59:51.299Z,1015.6
2017-09-04T02:01:49.492Z,1015.7
2017-09-04T02:02:48.555Z,1015.7
2017-09-04T02:03:47.878Z,1015.6
2017-09-04T02:04:47.062Z,1015.6
2017-09-04T02:05:46.157Z,1015.6
2017-09-04T02:06:45.359Z,1015.6
2017-09-04T02:09:43.061Z,1015.6
2017-09-04T02:10:42.249Z,1015.7
2017-09-04T02:11:41.311Z,1015.7
2017-09-04T02:12:40.627Z,1015.7
2017-09-04T02:13:39.568Z,1015.7
2017-09-04T02:14:39.041Z,1015.7
2017-09-04T02:15:37.974Z,1015.7
2017-09-04T02:16:37.296Z,1015.7
2017-09-04T02:17:36.247Z,1015.7
2017-09-04T02:18:35.813Z,1015.7
2017-09-04T02:19:35.002Z,1015.7
2017-09-04T02:20:33.809Z,1015.7
2017-09-04T02:21:33.138Z,1015.7
2017-09-04T02:22:32.086Z,1015.7
2017-09-04T02:23:31.657Z,1015.6
2017-09-04T02:25:29.849Z,1015.7
2017-09-04T02:26:29.157Z,1015.7
2017-09-04T02:26:59.665Z,1015.7
2017-09-04T02:29:26.295Z,1015.7
2017-09-04T02:30:25.473Z,1015.7
2017-09-04T02:31:24.915Z,1015.7
2017-09-04T02:33:23.108Z,1015.6
2017-09-04T02:34:22.158Z,1015.6
2017-09-04T02:35:21.355Z,1015.6
2017-09-04T02:37:19.699Z,1015.6
2017-09-04T02:37:50.324Z,1015.6
2017-09-04T02:38:20.936Z,1015.6
2017-09-04T02:38:51.314Z,1015.6
2017-09-04T02:40:17.543Z,1015.6
2017-09-04T02:41:16.718Z,1015.7
2017-09-04T02:42:15.912Z,1015.6
2017-09-04T02:43:14.855Z,1015.6
2017-09-04T02:44:14.289Z,1015.6
2017-09-04T02:45:13.092Z,1015.6
2017-09-04T02:46:12.272Z,1015.6
2017-09-04T02:47:11.834Z,1015.6
2017-09-04T02:48:11.016Z,1015.6
2017-09-04T02:49:09.820Z,1015.6
2017-09-04T02:50:09.119Z,1015.6
2017-09-04T02:51:08.428Z,1015.6
2017-09-04T02:52:07.505Z,1015.6
2017-09-04T02:53:06.729Z,1015.6
2017-09-04T02:54:05.916Z,1015.6
2017-09-04T02:55:04.850Z,1015.6
2017-09-04T02:56:04.156Z,1015.6
2017-09-04T02:57:03.223Z,1015.6
2017-09-04T02:58:02.411Z,1015.6
2017-09-04T02:59:01.835Z,1015.6
2017-09-04T03:00:00.757Z,1015.6
2017-09-04T03:01:00.214Z,1015.6
2017-09-04T03:01:59.395Z,1015.6
2017-09-04T03:02:58.570Z,1015.6
2017-09-04T03:03:57.880Z,1015.6
2017-09-04T03:04:56.568Z,1015.7
2017-09-04T03:05:56.213Z,1015.7
2017-09-04T03:06:55.405Z,1015.6
2017-09-04T03:07:54.204Z,1015.7
2017-09-04T03:08:53.513Z,1015.7
2017-09-04T03:09:52.438Z,1015.6
2017-09-04T03:10:51.996Z,1015.7
2017-09-04T03:11:51.049Z,1015.6
2017-09-04T03:12:49.980Z,1015.6
2017-09-04T03:13:49.426Z,1015.6
2017-09-04T03:14:48.353Z,1015.6
2017-09-04T03:15:47.912Z,1015.6
2017-09-04T03:18:45.247Z,1015.6
2017-09-04T03:19:44.309Z,1015.6
2017-09-04T03:20:43.623Z,1015.6
2017-09-04T03:23:40.960Z,1015.6
2017-09-04T03:25:39.391Z,1015.6
2017-09-04T03:26:38.573Z,1015.6
2017-09-04T03:27:37.881Z,1015.6
2017-09-04T03:28:36.941Z,1015.6
2017-09-04T03:29:36.244Z,1015.6
2017-09-04T03:30:35.182Z,1015.6
2017-09-04T03:31:34.237Z,1015.6
2017-09-04T03:33:32.946Z,1015.5
2017-09-04T03:34:32.130Z,1015.5
2017-09-04T03:35:31.197Z,1015.5
2017-09-04T03:37:29.635Z,1015.5
2017-09-04T03:38:28.484Z,1015.5
2017-09-04T03:39:28.045Z,1015.6
2017-09-04T03:40:27.225Z,1015.5
2017-09-04T03:41:26.404Z,1015.6
2017-09-04T03:42:25.349Z,1015.6
2017-09-04T03:43:24.403Z,1015.6
2017-09-04T03:44:23.466Z,1015.6
2017-09-04T03:45:22.642Z,1015.6
2017-09-04T03:46:21.952Z,1015.6
2017-09-04T03:47:21.135Z,1015.6
2017-09-04T03:48:20.300Z,1015.7
2017-09-04T03:49:19.718Z,1015.7
2017-09-04T03:50:18.528Z,1015.7
2017-09-04T03:51:17.706Z,1015.7
2017-09-04T03:52:17.010Z,1015.7
2017-09-04T03:53:16.206Z,1015.7
2017-09-04T03:55:14.657Z,1015.7
2017-09-04T03:56:13.465Z,1015.7
2017-09-04T03:57:12.647Z,1015.7
2017-09-04T03:58:11.959Z,1015.7
2017-09-04T04:00:10.163Z,1015.7
2017-09-04T04:01:09.584Z,1015.7
2017-09-04T04:02:08.510Z,1015.7
2017-09-04T04:05:06.226Z,1015.7
2017-09-04T04:06:05.414Z,1015.7
2017-09-04T04:09:03.001Z,1015.7
2017-09-04T04:12:59.610Z,1015.7
2017-09-04T04:13:58.665Z,1015.7
2017-09-04T04:14:57.731Z,1015.7
2017-09-04T04:15:57.163Z,1015.7
2017-09-04T04:17:55.233Z,1015.7
2017-09-04T04:18:54.288Z,1015.7
2017-09-04T04:19:53.711Z,1015.7
2017-09-04T04:21:51.779Z,1015.7
2017-09-04T04:22:51.087Z,1015.7
2017-09-04T04:24:49.292Z,1015.8
2017-09-04T04:25:48.484Z,1015.7
2017-09-04T04:26:47.919Z,1015.8
2017-09-04T04:27:47.106Z,1015.7
2017-09-04T04:28:46.297Z,1015.7
2017-09-04T04:29:45.110Z,1015.7
2017-09-04T04:30:44.430Z,1015.7
2017-09-04T04:31:43.874Z,1015.7
2017-09-04T04:32:42.795Z,1015.7
2017-09-04T04:33:41.733Z,1015.7
2017-09-04T04:34:41.294Z,1015.7
2017-09-04T04:35:40.477Z,1015.7
2017-09-04T04:36:39.654Z,1015.7
2017-09-04T04:37:38.583Z,1015.7
2017-09-04T04:38:37.895Z,1015.7
2017-09-04T04:39:36.708Z,1015.7
2017-09-04T04:40:35.892Z,1015.7
2017-09-04T04:41:35.197Z,1015.7
2017-09-04T04:42:34.507Z,1015.7
2017-09-04T04:44:32.695Z,1015.7
2017-09-04T04:45:31.693Z,1015.7
2017-09-04T04:46:30.885Z,1015.7
2017-09-04T04:47:30.200Z,1015.7
2017-09-04T04:48:29.506Z,1015.7
2017-09-04T04:49:28.558Z,1015.7
2017-09-04T04:50:27.861Z,1015.7
2017-09-04T04:51:26.657Z,1015.7
2017-09-04T04:52:25.969Z,1015.7
2017-09-04T04:53:25.408Z,1015.7
2017-09-04T04:54:24.218Z,1015.7
2017-09-04T04:55:23.662Z,1015.7
2017-09-04T04:56:22.583Z,1015.7
2017-09-04T04:57:21.899Z,1015.6
2017-09-04T04:58:21.078Z,1015.7
2017-09-04T04:59:20.134Z,1015.6
2017-09-04T05:00:19.064Z,1015.6
2017-09-04T05:01:18.628Z,1015.6
2017-09-04T05:02:17.806Z,1015.6
2017-09-04T05:03:16.994Z,1015.6
2017-09-04T05:04:16.052Z,1015.7
2017-09-04T05:05:14.991Z,1015.6
2017-09-04T05:07:13.423Z,1015.6
2017-09-04T05:08:12.485Z,1015.6
2017-09-04T05:09:11.664Z,1015.5
2017-09-04T05:10:10.962Z,1015.6
2017-09-04T05:12:09.409Z,1015.5
2017-09-04T05:13:08.353Z,1015.5
2017-09-04T05:14:07.293Z,1015.6
2017-09-04T05:16:05.736Z,1015.6
2017-09-04T05:17:04.910Z,1015.5
2017-09-04T05:18:03.975Z,1015.6
2017-09-04T05:19:03.270Z,1015.5
2017-09-04T05:20:02.576Z,1015.5
2017-09-04T05:21:01.885Z,1015.5
2017-09-04T05:22:00.945Z,1015.6
2017-09-04T05:23:00.117Z,1015.5
2017-09-04T05:24:58.188Z,1015.5
2017-09-04T05:25:57.246Z,1015.6
2017-09-04T05:26:56.803Z,1015.5
2017-09-04T05:27:55.742Z,1015.6
2017-09-04T05:28:55.065Z,1015.6
2017-09-04T05:29:54.239Z,1015.6
2017-09-04T05:30:53.040Z,1015.6
2017-09-04T05:31:52.604Z,1015.6
2017-09-04T05:32:51.582Z,1015.6
2017-09-04T05:33:50.885Z,1015.6
2017-09-04T05:34:49.938Z,1015.6
2017-09-04T05:35:49.112Z,1015.6
2017-09-04T05:36:48.174Z,1015.6
2017-09-04T05:37:47.228Z,1015.6
2017-09-04T05:38:46.558Z,1015.6
2017-09-04T05:39:45.605Z,1015.6
2017-09-04T05:40:44.786Z,1015.5
2017-09-04T05:41:44.216Z,1015.5
2017-09-04T05:42:43.011Z,1015.5
2017-09-04T05:43:42.192Z,1015.6
2017-09-04T05:44:41.247Z,1015.6
2017-09-04T05:45:40.803Z,1015.6
2017-09-04T05:46:39.990Z,1015.6
2017-09-04T05:47:39.172Z,1015.6
2017-09-04T05:48:38.349Z,1015.6
2017-09-04T05:49:37.158Z,1015.6
2017-09-04T05:50:36.220Z,1015.6
2017-09-04T05:51:35.782Z,1015.6
2017-09-04T05:52:34.707Z,1015.6
2017-09-04T05:53:33.756Z,1015.6
2017-09-04T05:54:33.064Z,1015.6
2017-09-04T05:55:32.246Z,1015.6
2017-09-04T05:56:31.557Z,1015.6
2017-09-04T05:57:30.622Z,1015.6
2017-09-04T05:58:29.813Z,1015.6
2017-09-04T05:59:28.638Z,1015.6
2017-09-04T06:00:28.077Z,1015.6
2017-09-04T06:01:27.377Z,1015.6
2017-09-04T06:02:26.315Z,1015.7
2017-09-04T06:03:25.500Z,1015.7
2017-09-04T06:05:23.703Z,1015.7
2017-09-04T06:06:23.011Z,1015.7
2017-09-04T06:07:22.068Z,1015.7
2017-09-04T06:08:21.372Z,1015.7
2017-09-04T06:09:20.554Z,1015.7
2017-09-04T06:10:19.604Z,1015.7
2017-09-04T06:11:18.790Z,1015.7
2017-09-04T06:12:18.105Z,1015.8
2017-09-04T06:13:16.916Z,1015.7
2017-09-04T06:14:16.237Z,1015.8
2017-09-04T06:15:15.546Z,1015.7
2017-09-04T06:16:14.602Z,1015.7
2017-09-04T06:17:14.034Z,1015.7
2017-09-04T06:18:12.725Z,1015.8
2017-09-04T06:19:12.280Z,1015.7
2017-09-04T06:20:11.344Z,1015.7
2017-09-04T06:21:10.269Z,1015.8
2017-09-04T06:22:09.462Z,1015.8
2017-09-04T06:23:08.650Z,1015.7
2017-09-04T06:24:07.951Z,1015.7
2017-09-04T06:25:07.137Z,1015.7
2017-09-04T06:25:37.397Z,1015.7
2017-09-04T06:26:07.631Z,1015.7
2017-09-04T06:27:05.423Z,1015.8
2017-09-04T06:28:04.730Z,1015.8
2017-09-04T06:29:04.050Z,1015.8
2017-09-04T06:30:02.850Z,1015.8
2017-09-04T06:31:02.026Z,1015.8
2017-09-04T06:32:01.220Z,1015.8
2017-09-04T06:33:00.273Z,1015.8
2017-09-04T06:33:59.455Z,1015.8
2017-09-04T06:34:58.891Z,1015.8
2017-09-04T06:35:57.829Z,1015.8
2017-09-04T06:36:57.015Z,1015.9
2017-09-04T06:37:56.444Z,1015.8
2017-09-04T06:38:55.623Z,1015.8
2017-09-04T06:39:54.683Z,1015.8
2017-09-04T06:40:53.738Z,1015.9
2017-09-04T06:41:52.918Z,1015.9
2017-09-04T06:42:51.986Z,1015.9
2017-09-04T06:43:51.164Z,1015.9
2017-09-04T06:44:21.791Z,1015.9
2017-09-04T06:45:49.922Z,1015.9
2017-09-04T06:46:48.727Z,1015.9
2017-09-04T06:47:47.912Z,1015.9
2017-09-04T06:48:47.332Z,1015.9
2017-09-04T06:49:46.246Z,1015.9
2017-09-04T06:50:45.675Z,1016
2017-09-04T06:51:44.978Z,1016
2017-09-04T06:52:43.922Z,1015.9
2017-09-04T06:53:43.234Z,1015.9
2017-09-04T06:54:42.164Z,1015.9
2017-09-04T06:55:41.598Z,1016
2017-09-04T06:56:40.897Z,1016
2017-09-04T06:57:39.950Z,1016
2017-09-04T06:58:39.269Z,1016
2017-09-04T06:59:38.223Z,1016
2017-09-04T07:00:37.402Z,1016
2017-09-04T07:01:36.842Z,1016
2017-09-04T07:02:35.782Z,1016
2017-09-04T07:03:34.967Z,1016
2017-09-04T07:04:34.289Z,1016
2017-09-04T07:05:33.101Z,1016
2017-09-04T07:06:32.287Z,1016
2017-09-04T07:07:31.972Z,1016
2017-09-04T07:08:30.773Z,1016
2017-09-04T07:10:29.096Z,1016
2017-09-04T07:11:28.410Z,1016.1
2017-09-04T07:12:27.840Z,1016.1
2017-09-04T07:13:26.652Z,1016.1
2017-09-04T07:14:26.222Z,1016.2
2017-09-04T07:15:25.147Z,1016.1
2017-09-04T07:16:24.197Z,1016.2
2017-09-04T07:17:23.387Z,1016.2
2017-09-04T07:18:22.690Z,1016.2
2017-09-04T07:19:22.118Z,1016.2
2017-09-04T07:19:52.360Z,1016.2
2017-09-04T07:20:22.607Z,1016.2
2017-09-04T07:21:20.281Z,1016.3
2017-09-04T07:22:19.585Z,1016.2
2017-09-04T07:23:18.768Z,1016.3
2017-09-04T07:24:18.198Z,1016.3
2017-09-04T07:25:17.015Z,1016.3
2017-09-04T07:26:16.576Z,1016.3
2017-09-04T07:27:15.508Z,1016.3
2017-09-04T07:28:14.816Z,1016.3
2017-09-04T07:29:14.127Z,1016.3
2017-09-04T07:30:13.185Z,1016.3
2017-09-04T07:31:12.361Z,1016.3
2017-09-04T07:32:11.536Z,1016.3
2017-09-04T07:33:10.853Z,1016.3
2017-09-04T07:34:09.786Z,1016.3
2017-09-04T07:35:08.989Z,1016.3
2017-09-04T07:36:08.429Z,1016.3
2017-09-04T07:37:07.506Z,1016.4
2017-09-04T07:38:06.813Z,1016.3
2017-09-04T07:39:06.000Z,1016.3
2017-09-04T07:40:05.319Z,1016.4
2017-09-04T07:41:04.374Z,1016.3
2017-09-04T07:42:03.426Z,1016.3
2017-09-04T07:43:02.489Z,1016.3
2017-09-04T07:44:02.171Z,1016.3
2017-09-04T07:45:01.091Z,1016.4
2017-09-04T07:46:00.404Z,1016.4
2017-09-04T07:46:59.589Z,1016.4
2017-09-04T07:47:58.779Z,1016.3
2017-09-04T07:48:58.090Z,1016.4
2017-09-04T07:49:57.276Z,1016.4
2017-09-04T07:50:56.456Z,1016.5
2017-09-04T07:52:54.655Z,1016.5
2017-09-04T07:53:54.078Z,1016.5
2017-09-04T07:54:53.002Z,1016.5
2017-09-04T07:55:52.492Z,1016.5
2017-09-04T07:56:51.668Z,1016.5
2017-09-04T07:57:50.599Z,1016.6
2017-09-04T07:58:49.910Z,1016.5
2017-09-04T07:59:49.350Z,1016.5
2017-09-04T08:00:48.545Z,1016.5
2017-09-04T08:02:47.115Z,1016.5
2017-09-04T08:03:46.054Z,1016.6
2017-09-04T08:04:45.245Z,1016.5
2017-09-04T08:05:44.440Z,1016.5
2017-09-04T08:06:43.993Z,1016.6
2017-09-04T08:07:43.048Z,1016.5
2017-09-04T08:08:42.229Z,1016.5
2017-09-04T08:09:41.428Z,1016.6
2017-09-04T08:10:40.510Z,1016.5
2017-09-04T08:11:39.687Z,1016.5
2017-09-04T08:12:38.869Z,1016.5
2017-09-04T08:13:38.306Z,1016.5
2017-09-04T08:14:37.491Z,1016.5
2017-09-04T08:15:36.678Z,1016.5
2017-09-04T08:16:36.111Z,1016.5
2017-09-04T08:17:35.302Z,1016.5
2017-09-04T08:18:34.360Z,1016.6
2017-09-04T08:19:33.405Z,1016.5
2017-09-04T08:20:32.970Z,1016.6
2017-09-04T08:21:32.277Z,1016.6
2017-09-04T08:22:31.206Z,1016.6
2017-09-04T08:23:30.517Z,1016.6
2017-09-04T08:24:29.700Z,1016.7
2017-09-04T08:25:28.882Z,1016.7
2017-09-04T08:26:28.193Z,1016.7
2017-09-04T08:27:27.516Z,1016.6
2017-09-04T08:28:26.695Z,1016.7
2017-09-04T08:29:26.007Z,1016.6
2017-09-04T08:30:24.939Z,1016.7
2017-09-04T08:31:24.504Z,1016.7
2017-09-04T08:32:23.310Z,1016.6
2017-09-04T08:33:22.619Z,1016.6
2017-09-04T08:34:21.927Z,1016.6
2017-09-04T08:35:21.112Z,1016.7
2017-09-04T08:36:20.678Z,1016.7
2017-09-04T08:37:19.486Z,1016.7
2017-09-04T08:38:19.172Z,1016.7
2017-09-04T08:39:17.992Z,1016.7
2017-09-04T08:40:17.432Z,1016.7
2017-09-04T08:41:16.611Z,1016.7
2017-09-04T08:42:15.918Z,1016.7
2017-09-04T08:43:15.233Z,1016.7
2017-09-04T08:44:14.545Z,1016.7
2017-09-04T08:45:13.844Z,1016.7
2017-09-04T08:46:12.797Z,1016.7
2017-09-04T08:47:11.851Z,1016.7
2017-09-04T08:48:11.540Z,1016.7
2017-09-04T08:49:10.719Z,1016.7
2017-09-04T08:50:10.033Z,1016.7
2017-09-04T08:51:08.841Z,1016.7
2017-09-04T08:52:08.155Z,1016.7
2017-09-04T08:53:07.344Z,1016.8
2017-09-04T08:54:06.776Z,1016.8
2017-09-04T08:55:05.833Z,1016.8
2017-09-04T08:56:05.265Z,1016.8
2017-09-04T08:57:04.577Z,1016.8
2017-09-04T08:58:04.009Z,1016.8
2017-09-04T08:59:02.938Z,1016.8
2017-09-04T09:00:02.128Z,1016.8
2017-09-04T09:01:01.713Z,1016.8
2017-09-04T09:02:00.646Z,1016.8
2017-09-04T09:03:00.086Z,1016.9
2017-09-04T09:03:59.521Z,1016.8
2017-09-04T09:04:58.712Z,1016.9
2017-09-04T09:05:57.780Z,1016.9
2017-09-04T09:06:56.860Z,1016.9
2017-09-04T09:09:54.584Z,1016.8
2017-09-04T09:10:54.022Z,1016.9
2017-09-04T09:11:53.461Z,1016.9
2017-09-04T09:12:52.774Z,1016.9
2017-09-04T09:13:51.712Z,1016.9
2017-09-04T09:14:51.032Z,1016.9
2017-09-04T09:15:50.090Z,1016.9
2017-09-04T09:16:49.782Z,1016.9
2017-09-04T09:17:48.720Z,1016.9
2017-09-04T09:18:48.280Z,1016.9
2017-09-04T09:19:47.588Z,1016.9
2017-09-04T09:20:46.509Z,1016.9
2017-09-04T09:21:46.062Z,1016.9
2017-09-04T09:22:44.987Z,1016.8
2017-09-04T09:23:44.429Z,1016.9
2017-09-04T09:24:43.871Z,1016.9
2017-09-04T09:25:43.052Z,1016.8
2017-09-04T09:26:42.358Z,1016.8
2017-09-04T09:27:41.543Z,1016.9
2017-09-04T09:28:40.858Z,1016.9
2017-09-04T09:29:40.035Z,1016.8
2017-09-04T09:30:39.101Z,1016.9
2017-09-04T09:31:38.659Z,1016.8
2017-09-04T09:32:37.580Z,1016.8
2017-09-04T09:33:36.883Z,1016.8
2017-09-04T09:34:36.431Z,1016.8
2017-09-04T09:35:35.742Z,1016.8
2017-09-04T09:36:34.921Z,1016.8
2017-09-04T09:37:34.240Z,1016.9
2017-09-04T09:38:33.680Z,1016.9
2017-09-04T09:39:32.617Z,1016.9
2017-09-04T09:40:32.072Z,1016.9
2017-09-04T09:41:31.513Z,1016.9
2017-09-04T09:42:30.696Z,1016.9
2017-09-04T09:43:29.760Z,1016.9
2017-09-04T09:44:29.337Z,1016.9
2017-09-04T09:45:28.408Z,1016.8
2017-09-04T09:46:27.848Z,1016.9
2017-09-04T09:47:26.920Z,1016.8
2017-09-04T09:48:26.487Z,1016.8
2017-09-04T09:49:25.287Z,1016.8
2017-09-04T09:50:24.717Z,1016.9
2017-09-04T09:51:24.267Z,1016.9
2017-09-04T09:52:23.583Z,1016.8
2017-09-04T09:53:22.515Z,1016.8
2017-09-04T09:54:22.077Z,1016.8
2017-09-04T09:55:21.271Z,1016.8
2017-09-04T09:56:20.574Z,1016.9
2017-09-04T09:57:20.004Z,1016.8
2017-09-04T09:58:19.313Z,1016.8
2017-09-04T09:59:18.499Z,1016.8
2017-09-04T10:00:17.441Z,1016.9
2017-09-04T10:01:16.873Z,1016.8
2017-09-04T10:02:16.313Z,1016.8
2017-09-04T10:03:15.624Z,1016.9
2017-09-04T10:04:14.677Z,1016.9
2017-09-04T10:05:14.369Z,1016.9
2017-09-04T10:06:13.400Z,1016.9
2017-09-04T10:07:12.704Z,1016.8
2017-09-04T10:08:12.016Z,1016.8
2017-09-04T10:09:11.450Z,1016.8
2017-09-04T10:10:10.754Z,1016.8
2017-09-04T10:11:10.066Z,1016.8
2017-09-04T10:12:08.998Z,1016.8
2017-09-04T10:13:08.680Z,1016.8
2017-09-04T10:14:07.597Z,1016.8
2017-09-04T10:15:07.284Z,1016.9
2017-09-04T10:16:06.203Z,1016.9
2017-09-04T10:17:05.761Z,1016.8
2017-09-04T10:18:05.207Z,1016.8
2017-09-04T10:19:04.258Z,1016.8
2017-09-04T10:20:03.695Z,1016.8
2017-09-04T10:21:03.134Z,1016.8
2017-09-04T10:22:02.059Z,1016.8
2017-09-04T10:23:01.753Z,1016.8
2017-09-04T10:24:00.806Z,1016.8
2017-09-04T10:25:00.117Z,1016.8
2017-09-04T10:25:59.558Z,1016.8
2017-09-04T10:26:58.992Z,1016.8
2017-09-04T10:27:58.045Z,1016.8
2017-09-04T10:28:57.222Z,1016.8
2017-09-04T10:29:56.815Z,1016.8
2017-09-04T10:30:56.254Z,1016.8
2017-09-04T10:32:54.825Z,1016.8
2017-09-04T10:33:53.871Z,1016.8
2017-09-04T10:34:53.428Z,1016.8
2017-09-04T10:35:52.365Z,1016.8
2017-09-04T10:36:51.915Z,1016.8
2017-09-04T10:37:51.225Z,1016.8
2017-09-04T10:38:50.536Z,1016.8
2017-09-04T10:39:49.585Z,1016.8
2017-09-04T10:40:49.268Z,1016.8
2017-09-04T10:41:48.704Z,1016.8
2017-09-04T10:42:47.887Z,1016.8
2017-09-04T10:43:47.318Z,1016.9
2017-09-04T10:44:46.614Z,1016.9
2017-09-04T10:45:45.677Z,1016.9
2017-09-04T10:46:44.980Z,1016.9
2017-09-04T10:47:44.286Z,1016.9
2017-09-04T10:49:43.238Z,1016.9
2017-09-04T10:50:42.176Z,1016.9
2017-09-04T10:51:41.488Z,1016.9
2017-09-04T10:52:40.797Z,1016.9
2017-09-04T10:53:40.238Z,1016.9
2017-09-04T10:54:39.552Z,1016.8
2017-09-04T10:55:39.130Z,1016.8
2017-09-04T10:56:38.299Z,1016.8
2017-09-04T10:57:37.604Z,1016.8
2017-09-04T10:58:36.657Z,1016.8
2017-09-04T10:59:36.093Z,1016.8
2017-09-04T11:00:35.275Z,1016.8
2017-09-04T11:01:34.717Z,1016.8
2017-09-04T11:02:33.895Z,1016.8
2017-09-04T11:03:33.457Z,1016.8
2017-09-04T11:04:32.637Z,1016.8
2017-09-04T11:05:31.961Z,1016.8
2017-09-04T11:07:30.531Z,1016.8
2017-09-04T11:08:29.831Z,1016.8
2017-09-04T11:09:29.152Z,1016.8
2017-09-04T11:10:28.605Z,1016.8
2017-09-04T11:11:28.170Z,1016.8
2017-09-04T11:12:27.479Z,1016.8
2017-09-04T11:13:26.800Z,1016.8
2017-09-04T11:14:25.991Z,1016.8
2017-09-04T11:15:25.431Z,1016.8
2017-09-04T11:16:24.859Z,1016.9
2017-09-04T11:17:24.037Z,1016.9
2017-09-04T11:17:54.658Z,1016.9
2017-09-04T11:18:25.030Z,1016.8
2017-09-04T11:18:55.395Z,1016.8
2017-09-04T11:19:26.049Z,1016.8
2017-09-04T11:20:21.806Z,1016.8
2017-09-04T11:21:21.359Z,1016.8
2017-09-04T11:22:20.654Z,1016.9
2017-09-04T11:23:19.709Z,1016.9
2017-09-04T11:24:19.140Z,1016.9
2017-09-04T11:25:18.589Z,1016.9
2017-09-04T11:26:17.892Z,1016.9
2017-09-04T11:27:17.070Z,1016.9
2017-09-04T11:28:16.379Z,1016.9
2017-09-04T11:29:15.682Z,1016.8
2017-09-04T11:30:15.115Z,1016.9
2017-09-04T11:31:14.286Z,1016.9
2017-09-04T11:32:13.842Z,1016.9
2017-09-04T11:33:13.147Z,1016.9
2017-09-04T11:34:12.583Z,1016.9
2017-09-04T11:35:11.894Z,1016.9
2017-09-04T11:36:10.945Z,1016.9
2017-09-04T11:37:10.385Z,1016.8
2017-09-04T11:38:09.693Z,1016.8
2017-09-04T11:39:09.265Z,1016.8
2017-09-04T11:40:08.729Z,1016.8
2017-09-04T11:41:07.993Z,1016.8
2017-09-04T11:42:06.915Z,1016.8
2017-09-04T11:43:06.348Z,1016.8
2017-09-04T11:44:05.901Z,1016.8
2017-09-04T11:45:05.337Z,1016.8
2017-09-04T11:46:04.512Z,1016.8
2017-09-04T11:47:03.941Z,1016.7
2017-09-04T11:48:03.373Z,1016.7
2017-09-04T11:49:02.428Z,1016.7
2017-09-04T11:50:01.609Z,1016.7
2017-09-04T11:51:01.314Z,1016.7
2017-09-04T11:52:00.387Z,1016.7
2017-09-04T11:53:00.083Z,1016.7
2017-09-04T11:53:59.384Z,1016.6
2017-09-04T11:54:58.811Z,1016.6
2017-09-04T11:55:57.877Z,1016.7
2017-09-04T11:56:57.306Z,1016.7
2017-09-04T11:57:56.601Z,1016.7
2017-09-04T11:58:55.786Z,1016.6
2017-09-04T11:59:55.469Z,1016.7
2017-09-04T12:00:54.764Z,1016.7
2017-09-04T12:01:54.084Z,1016.7
2017-09-04T12:02:53.266Z,1016.7
2017-09-04T12:03:52.581Z,1016.6
2017-09-04T12:04:52.127Z,1016.7
2017-09-04T12:06:50.834Z,1016.7
2017-09-04T12:07:49.919Z,1016.7
2017-09-04T12:08:49.345Z,1016.7
2017-09-04T12:09:48.774Z,1016.7
2017-09-04T12:10:48.208Z,1016.7
2017-09-04T12:11:47.394Z,1016.7
2017-09-04T12:12:18.029Z,1016.7
2017-09-04T12:12:48.533Z,1016.6
2017-09-04T12:13:46.331Z,1016.7
2017-09-04T12:14:45.513Z,1016.7
2017-09-04T12:15:45.066Z,1016.7
2017-09-04T12:16:44.373Z,1016.7
2017-09-04T12:17:43.434Z,1016.6
2017-09-04T12:18:42.867Z,1016.6
2017-09-04T12:19:42.297Z,1016.6
2017-09-04T12:20:41.473Z,1016.7
2017-09-04T12:21:40.910Z,1016.6
2017-09-04T12:22:40.469Z,1016.6
2017-09-04T12:23:39.508Z,1016.6
2017-09-04T12:24:38.815Z,1016.7
2017-09-04T12:25:38.113Z,1016.6
2017-09-04T12:26:37.929Z,1016.7
2017-09-04T12:27:36.982Z,1016.7
2017-09-04T12:28:36.284Z,1016.7
2017-09-04T12:29:35.836Z,1016.7
2017-09-04T12:30:35.142Z,1016.7
2017-09-04T12:31:34.469Z,1016.7
2017-09-04T12:32:34.026Z,1016.7
2017-09-04T12:33:32.959Z,1016.7
2017-09-04T12:34:32.385Z,1016.7
2017-09-04T12:35:31.817Z,1016.6
2017-09-04T12:36:31.123Z,1016.7
2017-09-04T12:37:30.305Z,1016.7
2017-09-04T12:38:29.915Z,1016.6
2017-09-04T12:39:29.471Z,1016.6
2017-09-04T12:40:28.786Z,1016.6
2017-09-04T12:41:28.102Z,1016.6
2017-09-04T12:43:26.676Z,1016.6
2017-09-04T12:44:25.989Z,1016.6
2017-09-04T12:45:25.555Z,1016.6
2017-09-04T12:46:24.481Z,1016.6
2017-09-04T12:47:23.909Z,1016.6
2017-09-04T12:48:23.467Z,1016.6
2017-09-04T12:49:22.906Z,1016.7
2017-09-04T12:50:21.847Z,1016.6
2017-09-04T12:51:21.164Z,1016.6
2017-09-04T12:52:20.591Z,1016.6
2017-09-04T12:53:20.025Z,1016.6
2017-09-04T12:54:19.355Z,1016.6
2017-09-04T12:55:19.037Z,1016.6
2017-09-04T12:56:18.347Z,1016.6
2017-09-04T12:57:17.567Z,1016.5
2017-09-04T12:58:16.993Z,1016.6
2017-09-04T12:59:16.177Z,1016.6
2017-09-04T13:00:15.620Z,1016.6
2017-09-04T13:01:14.676Z,1016.5
2017-09-04T13:02:14.360Z,1016.5
2017-09-04T13:03:13.800Z,1016.5